createdAt,value
2019-02-25T00:00:56.695Z,16.10
2019-02-25T00:03:25.689Z,13.20
2019-02-25T00:05:54.397Z,12.20
2019-02-25T00:08:23.342Z,17.33
2019-02-25T00:10:52.339Z,17.27
2019-02-25T00:13:21.491Z,13.67
2019-02-25T00:15:50.178Z,17.83
2019-02-25T00:18:19.529Z,14.63
2019-02-25T00:20:48.424Z,17.83
2019-02-25T00:23:17.310Z,24.63
2019-02-25T00:25:46.017Z,18.90
2019-02-25T00:28:14.647Z,20.93
2019-02-25T00:30:43.629Z,15.73
2019-02-25T00:33:12.907Z,22.50
2019-02-25T00:35:41.845Z,18.27
2019-02-25T00:38:10.786Z,19.33
2019-02-25T00:40:39.465Z,20.47
2019-02-25T00:43:08.116Z,17.40
2019-02-25T00:45:37.701Z,23.97
2019-02-25T00:48:06.477Z,15.63
2019-02-25T00:50:35.139Z,19.37
2019-02-25T00:53:03.877Z,15.67
2019-02-25T00:55:32.672Z,20.17
2019-02-25T00:58:01.417Z,17.00
2019-02-25T01:00:30.169Z,13.50
2019-02-25T01:02:59.185Z,17.33
2019-02-25T01:05:27.913Z,19.07
2019-02-25T01:07:56.610Z,19.70
2019-02-25T01:10:25.385Z,17.27
2019-02-25T01:12:54.094Z,17.63
2019-02-25T01:15:23.259Z,24.10
2019-02-25T01:17:52.726Z,20.60
2019-02-25T01:20:21.781Z,17.17
2019-02-25T01:22:50.742Z,15.00
2019-02-25T01:25:19.471Z,19.23
2019-02-25T01:27:48.451Z,21.93
2019-02-25T01:30:17.694Z,17.80
2019-02-25T01:32:46.610Z,22.03
2019-02-25T01:35:15.713Z,18.23
2019-02-25T01:37:44.821Z,20.13
2019-02-25T01:40:13.698Z,14.37
2019-02-25T01:42:42.614Z,21.63
2019-02-25T01:45:12.234Z,17.17
2019-02-25T01:47:41.103Z,16.03
2019-02-25T01:50:10.246Z,18.53
2019-02-25T01:52:38.907Z,13.97
2019-02-25T01:55:08.248Z,14.67
2019-02-25T01:57:37.115Z,21.87
2019-02-25T02:00:08.496Z,18.70
2019-02-25T02:02:37.441Z,19.27
2019-02-25T02:05:06.174Z,20.67
2019-02-25T02:07:34.826Z,20.27
2019-02-25T02:10:03.605Z,15.93
2019-02-25T02:12:32.335Z,15.77
2019-02-25T02:15:01.239Z,15.60
2019-02-25T02:17:29.993Z,17.07
2019-02-25T02:19:58.721Z,14.63
2019-02-25T02:22:27.611Z,15.33
2019-02-25T02:24:56.618Z,23.27
2019-02-25T02:27:25.773Z,20.20
2019-02-25T02:29:54.445Z,14.53
2019-02-25T02:32:23.477Z,18.83
2019-02-25T02:34:52.314Z,13.67
2019-02-25T02:37:20.972Z,11.07
2019-02-25T02:39:49.982Z,13.43
2019-02-25T02:42:22.782Z,18.33
2019-02-25T02:45:03.617Z,13.87
2019-02-25T02:47:38.473Z,16.23
2019-02-25T02:50:10.221Z,18.37
2019-02-25T02:52:39.013Z,16.83
2019-02-25T02:55:09.554Z,13.40
2019-02-25T02:57:38.290Z,15.73
2019-02-25T03:00:10.857Z,13.87
2019-02-25T03:02:39.617Z,19.50
2019-02-25T03:05:10.338Z,19.33
2019-02-25T03:07:39.080Z,17.87
2019-02-25T03:10:08.906Z,18.97
2019-02-25T03:12:37.613Z,15.23
2019-02-25T03:15:08.383Z,14.13
2019-02-25T03:17:37.838Z,18.17
2019-02-25T03:20:06.971Z,16.50
2019-02-25T03:22:35.865Z,18.83
2019-02-25T03:25:05.376Z,14.93
2019-02-25T03:27:34.303Z,15.17
2019-02-25T03:30:03.262Z,17.00
2019-02-25T03:32:32.508Z,15.03
2019-02-25T03:35:01.876Z,17.73
2019-02-25T03:37:31.110Z,18.53
2019-02-25T03:40:00.228Z,15.83
2019-02-25T03:42:29.265Z,15.13
2019-02-25T03:44:58.298Z,14.20
2019-02-25T03:47:27.550Z,18.53
2019-02-25T03:49:56.393Z,15.27
2019-02-25T03:52:25.437Z,15.00
2019-02-25T03:54:54.174Z,18.27
2019-02-25T03:57:23.117Z,20.17
2019-02-25T03:59:51.777Z,16.43
2019-02-25T04:02:20.705Z,18.03
2019-02-25T04:04:50.013Z,16.00
2019-02-25T04:07:18.740Z,15.73
2019-02-25T04:09:47.651Z,17.00
2019-02-25T04:12:16.425Z,12.07
2019-02-25T04:14:45.120Z,17.17
2019-02-25T04:17:13.794Z,14.20
2019-02-25T04:19:42.597Z,10.43
2019-02-25T04:22:11.254Z,15.40
2019-02-25T04:24:39.937Z,15.10
2019-02-25T04:27:08.726Z,16.47
2019-02-25T04:29:37.608Z,19.03
2019-02-25T04:32:06.739Z,15.20
2019-02-25T04:34:35.758Z,11.47
2019-02-25T04:37:04.426Z,16.87
2019-02-25T04:39:33.077Z,18.20
2019-02-25T04:42:01.849Z,15.93
2019-02-25T04:44:30.517Z,13.33
2019-02-25T04:46:59.482Z,13.73
2019-02-25T04:49:28.708Z,17.70
2019-02-25T04:51:57.397Z,17.97
2019-02-25T04:54:27.472Z,19.60
2019-02-25T04:56:56.261Z,14.63
2019-02-25T04:59:25.008Z,15.30
2019-02-25T05:01:53.914Z,14.27
2019-02-25T05:04:22.834Z,15.83
2019-02-25T05:06:51.563Z,14.40
2019-02-25T05:09:20.473Z,19.90
2019-02-25T05:11:50.026Z,11.13
2019-02-25T05:14:18.718Z,17.67
2019-02-25T05:16:47.403Z,14.27
2019-02-25T05:19:16.233Z,18.73
2019-02-25T05:21:44.874Z,13.57
2019-02-25T05:24:13.777Z,19.10
2019-02-25T05:26:42.802Z,19.70
2019-02-25T05:29:11.601Z,23.20
2019-02-25T05:31:41.925Z,16.77
2019-02-25T05:34:10.648Z,11.73
2019-02-25T05:36:39.539Z,20.57
2019-02-25T05:39:08.367Z,17.13
2019-02-25T05:41:37.177Z,15.63
2019-02-25T05:44:08.408Z,15.20
2019-02-25T05:46:36.529Z,15.43
2019-02-25T05:49:05.383Z,18.03
2019-02-25T05:51:34.189Z,17.17
2019-02-25T05:54:03.101Z,17.77
2019-02-25T05:56:35.595Z,19.03
2019-02-25T05:59:04.417Z,13.97
2019-02-25T06:01:33.110Z,16.60
2019-02-25T06:04:02.078Z,16.17
2019-02-25T06:06:31.085Z,15.63
2019-02-25T06:09:00.198Z,16.23
2019-02-25T06:11:29.519Z,14.07
2019-02-25T06:13:58.648Z,18.40
2019-02-25T06:16:27.737Z,12.87
2019-02-25T06:18:56.535Z,18.37
2019-02-25T06:21:25.807Z,19.67
2019-02-25T06:23:55.064Z,18.50
2019-02-25T06:26:23.853Z,17.17
2019-02-25T06:28:52.526Z,23.37
2019-02-25T06:31:21.220Z,19.17
2019-02-25T06:33:50.493Z,23.80
2019-02-25T06:36:19.783Z,21.27
2019-02-25T06:38:48.770Z,21.80
2019-02-25T06:41:17.515Z,29.17
2019-02-25T06:43:46.225Z,49.63
2019-02-25T06:46:15.035Z,42.37
2019-02-25T06:48:44.050Z,31.30
2019-02-25T06:51:12.726Z,25.70
2019-02-25T06:53:41.382Z,24.07
2019-02-25T06:56:10.638Z,24.10
2019-02-25T06:58:40.659Z,22.23
2019-02-25T07:01:09.320Z,22.43
2019-02-25T07:03:38.888Z,23.83
2019-02-25T07:06:15.224Z,16.63
2019-02-25T07:08:50.788Z,16.23
2019-02-25T07:11:34.206Z,18.93
2019-02-25T07:14:25.026Z,17.20
2019-02-25T07:17:12.813Z,20.97
2019-02-25T07:19:52.450Z,17.02
2019-02-25T07:22:25.843Z,24.45
2019-02-25T07:25:16.997Z,19.67
2019-02-25T07:28:17.060Z,24.32
2019-02-25T07:30:54.630Z,28.30
2019-02-25T07:33:40.822Z,23.30
2019-02-25T07:36:32.108Z,26.62
2019-02-25T07:39:18.650Z,16.00
2019-02-25T07:42:12.679Z,19.50
2019-02-25T07:44:48.922Z,18.70
2019-02-25T07:47:35.437Z,15.98
2019-02-25T07:50:20.530Z,17.77
2019-02-25T07:53:02.624Z,23.17
2019-02-25T07:56:01.931Z,23.57
2019-02-25T07:58:39.442Z,18.62
2019-02-25T08:01:27.125Z,20.37
2019-02-25T08:04:02.801Z,25.33
2019-02-25T08:06:40.345Z,18.00
2019-02-25T08:09:27.123Z,19.05
2019-02-25T08:12:10.129Z,20.37
2019-02-25T08:14:50.857Z,19.42
2019-02-25T08:17:35.497Z,18.45
2019-02-25T08:20:22.296Z,30.00
2019-02-25T08:23:01.385Z,25.72
2019-02-25T08:25:52.607Z,28.47
2019-02-25T08:28:39.251Z,24.53
2019-02-25T08:31:18.863Z,21.35
2019-02-25T08:34:05.501Z,19.57
2019-02-25T08:37:45.070Z,16.80
2019-02-25T08:40:32.049Z,17.57
2019-02-25T08:43:13.773Z,18.45
2019-02-25T08:45:59.518Z,19.67
2019-02-25T08:48:38.122Z,17.85
2019-02-25T08:51:07.029Z,22.40
2019-02-25T08:53:35.801Z,20.82
2019-02-25T08:56:04.545Z,19.52
2019-02-25T08:58:33.309Z,23.42
2019-02-25T09:01:02.095Z,20.08
2019-02-25T09:03:31.477Z,27.70
2019-02-25T09:06:00.456Z,19.95
2019-02-25T09:08:29.161Z,19.77
2019-02-25T09:10:57.945Z,20.47
2019-02-25T09:13:29.653Z,22.40
2019-02-25T09:15:58.578Z,23.60
2019-02-25T09:18:27.590Z,24.05
2019-02-25T09:20:56.360Z,25.02
2019-02-25T09:23:25.095Z,27.07
2019-02-25T09:25:53.882Z,29.67
2019-02-25T09:28:22.594Z,30.25
2019-02-25T09:30:51.342Z,24.93
2019-02-25T09:33:20.409Z,25.48
2019-02-25T09:35:49.097Z,23.27
2019-02-25T09:38:18.017Z,24.77
2019-02-25T09:40:46.733Z,27.50
2019-02-25T09:43:15.417Z,31.90
2019-02-25T09:45:44.213Z,29.60
2019-02-25T09:48:12.940Z,29.90
2019-02-25T09:50:42.265Z,33.08
2019-02-25T09:53:11.193Z,28.90
2019-02-25T09:55:40.456Z,28.50
2019-02-25T09:58:09.222Z,29.25
2019-02-25T10:00:37.952Z,28.40
2019-02-25T10:03:06.989Z,42.58
2019-02-25T10:05:36.299Z,40.85
2019-02-25T10:08:04.968Z,32.55
2019-02-25T10:10:33.677Z,33.78
2019-02-25T10:13:02.622Z,35.35
2019-02-25T10:15:31.307Z,42.80
2019-02-25T10:18:00.524Z,43.33
2019-02-25T10:20:29.419Z,48.80
2019-02-25T10:22:58.107Z,41.65
2019-02-25T10:25:27.901Z,39.45
2019-02-25T10:27:56.669Z,42.27
2019-02-25T10:30:25.770Z,35.48
2019-02-25T10:32:54.935Z,38.35
2019-02-25T10:35:24.892Z,38.48
2019-02-25T10:37:53.771Z,39.27
2019-02-25T10:40:24.767Z,43.05
2019-02-25T10:42:53.372Z,35.90
2019-02-25T10:45:23.250Z,37.23
2019-02-25T10:47:57.636Z,44.05
2019-02-25T10:50:23.138Z,38.25
2019-02-25T10:52:51.897Z,40.90
2019-02-25T10:55:24.530Z,36.77
2019-02-25T10:57:54.975Z,40.12
2019-02-25T11:00:23.878Z,35.28
2019-02-25T11:02:53.591Z,34.85
2019-02-25T11:05:25.465Z,35.25
2019-02-25T11:07:54.047Z,38.02
2019-02-25T11:10:35.318Z,36.73
2019-02-25T11:13:04.958Z,35.40
2019-02-25T11:15:37.450Z,35.60
2019-02-25T11:18:08.249Z,41.15
2019-02-25T11:20:37.785Z,44.10
2019-02-25T11:23:06.684Z,31.27
2019-02-25T11:25:35.487Z,34.50
2019-02-25T11:28:05.399Z,30.00
2019-02-25T11:30:34.957Z,36.85
2019-02-25T11:33:04.574Z,35.20
2019-02-25T11:35:34.166Z,29.67
2019-02-25T11:38:03.126Z,31.17
2019-02-25T11:40:34.244Z,34.03
2019-02-25T11:43:02.755Z,37.13
2019-02-25T11:45:31.973Z,32.70
2019-02-25T11:48:00.881Z,38.65
2019-02-25T11:50:29.562Z,36.77
2019-02-25T11:52:58.614Z,37.15
2019-02-25T11:55:27.651Z,34.98
2019-02-25T11:57:56.350Z,28.15
2019-02-25T12:00:25.114Z,40.12
2019-02-25T12:02:53.897Z,29.70
2019-02-25T12:05:22.589Z,36.08
2019-02-25T12:07:51.576Z,37.90
2019-02-25T12:10:21.232Z,36.28
2019-02-25T12:12:49.958Z,35.25
2019-02-25T12:15:18.747Z,35.35
2019-02-25T12:17:47.731Z,31.90
2019-02-25T12:20:16.478Z,34.33
2019-02-25T12:22:45.462Z,40.95
2019-02-25T12:25:15.037Z,36.73
2019-02-25T12:27:43.795Z,35.23
2019-02-25T12:30:14.878Z,36.98
2019-02-25T12:32:43.674Z,35.24
2019-02-25T12:35:12.485Z,31.40
2019-02-25T12:37:41.206Z,34.33
2019-02-25T12:40:10.507Z,34.08
2019-02-25T12:42:39.434Z,34.08
2019-02-25T12:45:09.006Z,28.25
2019-02-25T12:47:38.538Z,38.02
2019-02-25T12:50:08.041Z,54.25
2019-02-25T12:52:36.837Z,34.07
2019-02-25T12:55:06.454Z,42.88
2019-02-25T12:57:35.160Z,33.70
2019-02-25T13:00:04.293Z,42.62
2019-02-25T13:02:33.159Z,29.70
2019-02-25T13:05:01.872Z,33.35
2019-02-25T13:07:31.061Z,39.27
2019-02-25T13:10:00.290Z,39.15
2019-02-25T13:12:29.286Z,30.33
2019-02-25T13:14:58.189Z,35.30
2019-02-25T13:17:27.197Z,28.05
2019-02-25T13:19:56.108Z,28.38
2019-02-25T13:22:25.885Z,34.85
2019-02-25T13:24:54.894Z,37.33
2019-02-25T13:27:23.781Z,44.75
2019-02-25T13:29:52.534Z,40.03
2019-02-25T13:32:21.329Z,28.92
2019-02-25T13:34:50.336Z,32.60
2019-02-25T13:37:19.318Z,33.58
2019-02-25T13:39:48.117Z,29.80
2019-02-25T13:42:17.390Z,27.85
2019-02-25T13:44:46.125Z,31.90
2019-02-25T13:47:15.300Z,29.25
2019-02-25T13:49:44.270Z,37.20
2019-02-25T13:52:13.477Z,52.80
2019-02-25T13:54:42.306Z,29.95
2019-02-25T13:57:11.071Z,31.33
2019-02-25T13:59:39.995Z,33.58
2019-02-25T14:02:08.755Z,33.23
2019-02-25T14:04:37.516Z,30.12
2019-02-25T14:07:06.342Z,26.07
2019-02-25T14:09:35.666Z,29.55
2019-02-25T14:12:04.677Z,32.93
2019-02-25T14:14:33.618Z,27.32
2019-02-25T14:17:02.494Z,26.20
2019-02-25T14:19:31.618Z,33.88
2019-02-25T14:22:00.409Z,25.23
2019-02-25T14:24:29.674Z,28.27
2019-02-25T14:26:58.763Z,35.40
2019-02-25T14:29:27.554Z,26.40
2019-02-25T14:31:56.764Z,25.08
2019-02-25T14:34:25.725Z,24.52
2019-02-25T14:36:55.325Z,27.13
2019-02-25T14:39:28.376Z,35.75
2019-02-25T14:41:58.891Z,27.98
2019-02-25T14:44:29.729Z,31.73
2019-02-25T14:46:58.700Z,24.30
2019-02-25T14:49:29.813Z,28.92
2019-02-25T14:51:58.815Z,22.82
2019-02-25T14:54:29.444Z,26.90
2019-02-25T14:56:58.189Z,28.50
2019-02-25T14:59:26.858Z,28.73
2019-02-25T15:01:56.976Z,28.77
2019-02-25T15:04:26.797Z,32.08
2019-02-25T15:06:55.560Z,31.57
2019-02-25T15:09:24.900Z,23.20
2019-02-25T15:11:55.907Z,26.87
2019-02-25T15:14:24.717Z,31.65
2019-02-25T15:16:53.789Z,20.52
2019-02-25T15:19:22.827Z,29.20
2019-02-25T15:21:52.180Z,23.27
2019-02-25T15:24:22.525Z,30.32
2019-02-25T15:26:51.296Z,28.07
2019-02-25T15:29:20.025Z,27.67
2019-02-25T15:31:48.906Z,33.58
2019-02-25T15:34:19.485Z,37.65
2019-02-25T15:36:48.316Z,31.57
2019-02-25T15:39:18.156Z,34.17
2019-02-25T15:41:48.692Z,21.65
2019-02-25T15:44:18.158Z,20.20
2019-02-25T15:46:47.295Z,22.98
2019-02-25T15:49:17.361Z,18.02
2019-02-25T15:51:46.990Z,19.00
2019-02-25T15:54:16.404Z,20.40
2019-02-25T15:56:45.314Z,32.73
2019-02-25T15:59:14.311Z,24.53
2019-02-25T16:01:43.644Z,25.35
2019-02-25T16:04:13.442Z,26.00
2019-02-25T16:06:42.486Z,18.50
2019-02-25T16:09:11.814Z,26.90
2019-02-25T16:11:41.371Z,22.60
2019-02-25T16:14:10.966Z,17.73
2019-02-25T16:16:40.156Z,20.20
2019-02-25T16:19:09.363Z,21.60
2019-02-25T16:21:40.932Z,20.75
2019-02-25T16:24:11.795Z,29.37
2019-02-25T16:26:40.601Z,20.05
2019-02-25T16:29:11.665Z,25.33
2019-02-25T16:31:40.402Z,25.45
2019-02-25T16:34:09.953Z,26.07
2019-02-25T16:36:41.282Z,23.60
2019-02-25T16:39:10.245Z,22.65
2019-02-25T16:41:41.023Z,24.90
2019-02-25T16:44:09.693Z,25.30
2019-02-25T16:46:41.768Z,19.40
2019-02-25T16:49:10.681Z,21.20
2019-02-25T16:51:39.798Z,20.63
2019-02-25T16:54:11.682Z,25.40
2019-02-25T16:56:41.251Z,20.30
2019-02-25T16:59:11.803Z,21.87
2019-02-25T17:01:42.032Z,25.17
2019-02-25T17:04:12.104Z,23.95
2019-02-25T17:06:42.047Z,26.37
2019-02-25T17:09:15.682Z,24.03
2019-02-25T17:11:46.041Z,25.90
2019-02-25T17:14:15.336Z,22.60
2019-02-25T17:16:45.518Z,21.47
2019-02-25T17:19:14.613Z,22.30
2019-02-25T17:21:43.708Z,22.37
2019-02-25T17:24:12.769Z,25.73
2019-02-25T17:26:41.693Z,23.92
2019-02-25T17:29:10.642Z,21.80
2019-02-25T17:31:40.836Z,23.83
2019-02-25T17:34:10.415Z,23.23
2019-02-25T17:36:40.273Z,28.77
2019-02-25T17:39:10.856Z,25.70
2019-02-25T17:41:40.422Z,24.60
2019-02-25T17:44:10.354Z,29.47
2019-02-25T17:46:41.193Z,27.55
2019-02-25T17:49:12.157Z,22.07
2019-02-25T17:51:40.842Z,21.47
2019-02-25T17:54:10.296Z,35.67
2019-02-25T17:56:40.866Z,29.27
2019-02-25T17:59:10.752Z,25.87
2019-02-25T18:01:41.754Z,24.80
2019-02-25T18:04:11.294Z,33.67
2019-02-25T18:06:41.470Z,25.70
2019-02-25T18:09:11.162Z,27.07
2019-02-25T18:11:41.239Z,27.37
2019-02-25T18:14:11.152Z,35.20
2019-02-25T18:16:42.566Z,23.33
2019-02-25T18:19:13.934Z,33.03
2019-02-25T18:21:44.413Z,27.40
2019-02-25T18:24:14.219Z,29.13
2019-02-25T18:26:44.442Z,25.23
2019-02-25T18:29:15.642Z,26.10
2019-02-25T18:31:44.230Z,24.30
2019-02-25T18:34:13.385Z,25.53
2019-02-25T18:36:45.190Z,26.90
2019-02-25T18:39:14.322Z,30.67
2019-02-25T18:41:43.308Z,30.60
2019-02-25T18:44:13.509Z,30.70
2019-02-25T18:46:45.991Z,25.77
2019-02-25T18:49:15.111Z,29.40
2019-02-25T18:51:43.868Z,25.30
2019-02-25T18:54:14.241Z,28.47
2019-02-25T18:56:44.629Z,27.90
2019-02-25T18:59:15.673Z,26.83
2019-02-25T19:01:45.379Z,25.23
2019-02-25T19:04:15.904Z,25.90
2019-02-25T19:06:47.660Z,25.33
2019-02-25T19:09:21.213Z,22.77
2019-02-25T19:11:51.266Z,25.60
2019-02-25T19:14:22.070Z,23.83
2019-02-25T19:16:51.439Z,31.80
2019-02-25T19:19:20.165Z,23.13
2019-02-25T19:21:50.052Z,25.43
2019-02-25T19:24:19.965Z,25.33
2019-02-25T19:26:52.597Z,28.37
2019-02-25T19:29:23.647Z,25.97
2019-02-25T19:31:52.727Z,24.75
2019-02-25T19:34:21.777Z,24.17
2019-02-25T19:36:50.581Z,32.80
2019-02-25T19:39:21.538Z,28.10
2019-02-25T19:41:51.381Z,25.37
2019-02-25T19:44:21.248Z,29.50
2019-02-25T19:46:51.237Z,25.23
2019-02-25T19:49:20.681Z,23.20
2019-02-25T19:51:50.748Z,25.93
2019-02-25T19:54:19.964Z,24.53
2019-02-25T19:56:50.783Z,30.13
2019-02-25T19:59:21.626Z,30.27
2019-02-25T20:01:50.104Z,22.60
2019-02-25T20:04:18.924Z,20.40
2019-02-25T20:06:48.926Z,25.60
2019-02-25T20:09:18.499Z,27.20
2019-02-25T20:11:47.341Z,24.47
2019-02-25T20:14:17.160Z,26.10
2019-02-25T20:16:46.401Z,26.97
2019-02-25T20:19:16.681Z,26.77
2019-02-25T20:21:46.427Z,26.20
2019-02-25T20:24:21.176Z,27.23
2019-02-25T20:26:52.557Z,27.80
2019-02-25T20:29:20.683Z,26.20
2019-02-25T20:31:51.721Z,23.93
2019-02-25T20:34:22.573Z,24.93
2019-02-25T20:36:53.073Z,28.57
2019-02-25T20:39:21.588Z,20.43
2019-02-25T20:41:52.196Z,30.43
2019-02-25T20:44:22.266Z,24.98
2019-02-25T20:46:52.827Z,25.83
2019-02-25T20:49:22.705Z,27.00
2019-02-25T20:51:54.467Z,24.83
2019-02-25T20:54:23.793Z,26.33
2019-02-25T20:56:53.369Z,30.93
2019-02-25T20:59:24.035Z,26.30
2019-02-25T21:01:53.677Z,26.55
2019-02-25T21:04:22.921Z,26.83
2019-02-25T21:06:51.706Z,32.27
2019-02-25T21:09:21.517Z,23.73
2019-02-25T21:11:50.305Z,25.87
2019-02-25T21:14:19.245Z,24.23
2019-02-25T21:16:48.086Z,26.33
2019-02-25T21:19:18.399Z,23.67
2019-02-25T21:21:52.977Z,25.95
2019-02-25T21:24:19.265Z,24.33
2019-02-25T21:26:48.144Z,27.73
2019-02-25T21:29:17.047Z,27.87
2019-02-25T21:31:47.577Z,26.53
2019-02-25T21:34:20.521Z,30.53
2019-02-25T21:36:47.341Z,27.30
2019-02-25T21:39:16.955Z,30.57
2019-02-25T21:41:46.530Z,25.20
2019-02-25T21:44:18.887Z,27.27
2019-02-25T21:46:49.582Z,26.43
2019-02-25T21:49:16.357Z,28.73
2019-02-25T21:51:48.062Z,27.63
2019-02-25T21:54:15.772Z,24.67
2019-02-25T21:56:44.742Z,27.20
2019-02-25T21:59:14.971Z,24.57
2019-02-25T22:01:44.229Z,28.53
2019-02-25T22:04:13.382Z,29.53
2019-02-25T22:06:47.141Z,31.70
2019-02-25T22:09:14.566Z,26.87
2019-02-25T22:11:43.301Z,27.70
2019-02-25T22:14:12.254Z,25.93
2019-02-25T22:16:44.321Z,25.37
2019-02-25T22:19:14.197Z,23.03
2019-02-25T22:21:43.710Z,30.30
2019-02-25T22:24:13.132Z,28.90
2019-02-25T22:26:42.058Z,24.00
2019-02-25T22:29:12.806Z,26.07
2019-02-25T22:31:44.313Z,28.33
2019-02-25T22:34:15.327Z,25.60
2019-02-25T22:36:46.116Z,27.47
2019-02-25T22:39:14.539Z,25.33
2019-02-25T22:41:44.534Z,24.70
2019-02-25T22:44:13.593Z,25.90
2019-02-25T22:46:43.430Z,22.63
2019-02-25T22:49:12.221Z,23.57
2019-02-25T22:51:41.043Z,23.40
2019-02-25T22:54:10.354Z,25.47
2019-02-25T22:56:40.237Z,22.27
2019-02-25T22:59:08.979Z,28.63
2019-02-25T23:01:37.812Z,25.23
2019-02-25T23:04:06.741Z,23.73
2019-02-25T23:06:39.729Z,22.53
2019-02-25T23:09:12.281Z,28.32
2019-02-25T23:11:41.809Z,22.33
2019-02-25T23:14:11.423Z,25.07
2019-02-25T23:16:41.591Z,22.60
2019-02-25T23:19:12.007Z,24.33
2019-02-25T23:21:41.868Z,29.43
2019-02-25T23:24:11.428Z,23.60
2019-02-25T23:26:40.353Z,24.20
2019-02-25T23:29:09.053Z,27.90
2019-02-25T23:31:37.778Z,34.77
2019-02-25T23:34:08.000Z,29.73
2019-02-25T23:36:40.584Z,24.60
2019-02-25T23:39:08.725Z,26.90
2019-02-25T23:41:39.022Z,27.70
2019-02-25T23:44:08.975Z,26.83
2019-02-25T23:46:40.012Z,24.57
2019-02-25T23:49:09.046Z,20.23
2019-02-25T23:51:39.949Z,28.33
2019-02-25T23:54:12.139Z,27.90
2019-02-25T23:56:40.467Z,26.33
2019-02-25T23:59:12.660Z,25.87
